sensor_id;sensor_type;location;lat;lon;timestamp;pressure;altitude;pressure_sealevel;temperature;humidity
54248;BME280;40161;39.768;2.722;2022-09-23T00:02:25;101464.72;;;23.11;65.59
54248;BME280;40161;39.768;2.722;2022-09-23T00:04:50;101471.03;;;23.32;64.67
54248;BME280;40161;39.768;2.722;2022-09-23T00:07:16;101426.22;;;23.15;64.39
54248;BME280;40161;39.768;2.722;2022-09-23T00:09:42;101462.63;;;23.15;64.52
54248;BME280;40161;39.768;2.722;2022-09-23T00:12:07;101479.72;;;23.37;64.55
54248;BME280;40161;39.768;2.722;2022-09-23T00:14:36;101477.53;;;23.45;64.16
54248;BME280;40161;39.768;2.722;2022-09-23T00:17:01;101441.38;;;22.82;63.23
54248;BME280;40161;39.768;2.722;2022-09-23T00:19:27;101469.44;;;23.14;65.35
54248;BME280;40161;39.768;2.722;2022-09-23T00:21:53;101462.31;;;23.30;64.22
54248;BME280;40161;39.768;2.722;2022-09-23T00:24:21;101477.53;;;23.45;63.98
54248;BME280;40161;39.768;2.722;2022-09-23T00:26:47;101458.69;;;23.45;63.48
54248;BME280;40161;39.768;2.722;2022-09-23T00:29:13;101460.91;;;23.54;63.50
54248;BME280;40161;39.768;2.722;2022-09-23T00:31:40;101467.97;;;23.59;63.27
54248;BME280;40161;39.768;2.722;2022-09-23T00:34:05;101444.06;;;23.21;61.75
54248;BME280;40161;39.768;2.722;2022-09-23T00:36:31;101444.06;;;22.49;65.66
54248;BME280;40161;39.768;2.722;2022-09-23T00:38:57;101468.75;;;22.54;65.48
54248;BME280;40161;39.768;2.722;2022-09-23T00:41:25;101468.50;;;22.65;67.19
54248;BME280;40161;39.768;2.722;2022-09-23T00:43:57;101460.81;;;22.89;65.76
54248;BME280;40161;39.768;2.722;2022-09-23T00:46:37;101452.28;;;22.96;65.30
54248;BME280;40161;39.768;2.722;2022-09-23T00:49:24;101437.75;;;23.01;65.11
54248;BME280;40161;39.768;2.722;2022-09-23T00:52:04;101460.19;;;23.34;64.07
54248;BME280;40161;39.768;2.722;2022-09-23T00:54:30;101431.31;;;23.20;64.26
54248;BME280;40161;39.768;2.722;2022-09-23T00:56:58;101462.03;;;23.40;63.76
54248;BME280;40161;39.768;2.722;2022-09-23T00:59:24;101454.50;;;23.21;62.51
54248;BME280;40161;39.768;2.722;2022-09-23T01:01:52;101459.13;;;23.28;64.24
54248;BME280;40161;39.768;2.722;2022-09-23T01:04:21;101427.28;;;23.21;64.16
54248;BME280;40161;39.768;2.722;2022-09-23T01:06:48;101412.03;;;23.22;63.30
54248;BME280;40161;39.768;2.722;2022-09-23T01:09:14;101437.63;;;23.41;63.38
54248;BME280;40161;39.768;2.722;2022-09-23T01:11:49;101452.50;;;23.54;63.75
54248;BME280;40161;39.768;2.722;2022-09-23T01:31:42;101391.78;;;22.82;64.71
54248;BME280;40161;39.768;2.722;2022-09-23T01:34:23;101441.09;;;23.29;63.94
54248;BME280;40161;39.768;2.722;2022-09-23T01:40:04;101412.31;;;23.12;63.24
54248;BME280;40161;39.768;2.722;2022-09-23T01:42:49;101421.88;;;23.31;63.28
54248;BME280;40161;39.768;2.722;2022-09-23T01:45:34;101437.53;;;23.44;63.31
54248;BME280;40161;39.768;2.722;2022-09-23T01:48:19;101443.91;;;23.45;63.17
54248;BME280;40161;39.768;2.722;2022-09-23T01:51:09;101426.84;;;23.39;62.79
54248;BME280;40161;39.768;2.722;2022-09-23T01:57:00;101427.56;;;23.43;62.61
54248;BME280;40161;39.768;2.722;2022-09-23T02:04:50;101438.22;;;23.49;62.76
54248;BME280;40161;39.768;2.722;2022-09-23T02:07:23;101432.72;;;23.45;62.68
54248;BME280;40161;39.768;2.722;2022-09-23T02:09:55;101426.31;;;23.44;62.76
54248;BME280;40161;39.768;2.722;2022-09-23T02:12:23;101422.75;;;23.44;62.73
54248;BME280;40161;39.768;2.722;2022-09-23T02:14:59;101412.16;;;23.35;62.35
54248;BME280;40161;39.768;2.722;2022-09-23T02:17:44;101429.31;;;23.37;62.81
54248;BME280;40161;39.768;2.722;2022-09-23T02:20:13;101417.59;;;22.90;63.20
54248;BME280;40161;39.768;2.722;2022-09-23T02:25:41;101386.91;;;22.50;65.42
54248;BME280;40161;39.768;2.722;2022-09-23T02:28:20;101422.34;;;22.93;64.63
54248;BME280;40161;39.768;2.722;2022-09-23T02:31:32;101409.66;;;22.88;63.20
54248;BME280;40161;39.768;2.722;2022-09-23T02:34:16;101408.25;;;22.60;65.64
54248;BME280;40161;39.768;2.722;2022-09-23T02:39:13;101415.09;;;22.95;64.62
54248;BME280;40161;39.768;2.722;2022-09-23T02:41:54;101402.44;;;23.07;63.94
54248;BME280;40161;39.768;2.722;2022-09-23T02:44:21;101370.81;;;22.90;63.79
54248;BME280;40161;39.768;2.722;2022-09-23T02:46:48;101412.66;;;23.14;63.64
54248;BME280;40161;39.768;2.722;2022-09-23T02:51:51;101406.13;;;23.20;63.84
54248;BME280;40161;39.768;2.722;2022-09-23T02:54:23;101354.78;;;22.74;63.11
54248;BME280;40161;39.768;2.722;2022-09-23T02:56:50;101388.16;;;23.02;63.08
54248;BME280;40161;39.768;2.722;2022-09-23T02:59:18;101365.66;;;22.89;63.28
54248;BME280;40161;39.768;2.722;2022-09-23T03:04:54;101398.41;;;23.25;63.22
54248;BME280;40161;39.768;2.722;2022-09-23T03:10:12;101399.69;;;22.51;64.44
54248;BME280;40161;39.768;2.722;2022-09-23T03:18:24;101401.69;;;22.50;65.62
54248;BME280;40161;39.768;2.722;2022-09-23T03:21:02;101369.84;;;22.44;64.99
54248;BME280;40161;39.768;2.722;2022-09-23T03:23:35;101374.44;;;22.55;64.88
54248;BME280;40161;39.768;2.722;2022-09-23T03:26:06;101397.38;;;22.82;64.05
54248;BME280;40161;39.768;2.722;2022-09-23T03:28:37;101405.16;;;22.91;63.77
54248;BME280;40161;39.768;2.722;2022-09-23T03:31:08;101398.50;;;22.85;63.29
54248;BME280;40161;39.768;2.722;2022-09-23T03:33:35;101411.41;;;22.98;63.50
54248;BME280;40161;39.768;2.722;2022-09-23T03:36:06;101388.47;;;22.87;63.16
54248;BME280;40161;39.768;2.722;2022-09-23T03:38:58;101390.44;;;22.70;64.13
54248;BME280;40161;39.768;2.722;2022-09-23T03:41:38;101377.56;;;22.57;62.57
54248;BME280;40161;39.768;2.722;2022-09-23T03:44:07;101388.50;;;22.67;63.80
54248;BME280;40161;39.768;2.722;2022-09-23T03:46:33;101412.50;;;22.85;63.88
54248;BME280;40161;39.768;2.722;2022-09-23T03:49:09;101391.78;;;22.82;63.95
54248;BME280;40161;39.768;2.722;2022-09-23T03:51:38;101398.38;;;22.92;63.68
54248;BME280;40161;39.768;2.722;2022-09-23T03:54:03;101386.53;;;22.84;63.57
54248;BME280;40161;39.768;2.722;2022-09-23T03:56:29;101379.81;;;22.82;63.46
54248;BME280;40161;39.768;2.722;2022-09-23T03:58:54;101397.09;;;22.96;63.68
54248;BME280;40161;39.768;2.722;2022-09-23T04:01:20;101390.84;;;22.89;63.16
54248;BME280;40161;39.768;2.722;2022-09-23T04:03:45;101405.50;;;22.77;62.11
54248;BME280;40161;39.768;2.722;2022-09-23T04:06:11;101401.19;;;22.16;63.98
54248;BME280;40161;39.768;2.722;2022-09-23T04:08:37;101408.88;;;21.88;64.80
54248;BME280;40161;39.768;2.722;2022-09-23T04:11:03;101402.50;;;21.88;67.58
54248;BME280;40161;39.768;2.722;2022-09-23T04:13:29;101418.31;;;22.18;65.39
54248;BME280;40161;39.768;2.722;2022-09-23T04:15:55;101385.53;;;21.78;67.58
54248;BME280;40161;39.768;2.722;2022-09-23T04:18:21;101409.56;;;21.96;65.57
54248;BME280;40161;39.768;2.722;2022-09-23T04:20:47;101397.91;;;21.54;68.79
54248;BME280;40161;39.768;2.722;2022-09-23T04:23:12;101386.44;;;21.72;67.14
54248;BME280;40161;39.768;2.722;2022-09-23T04:25:47;101382.88;;;21.91;66.82
54248;BME280;40161;39.768;2.722;2022-09-23T04:28:13;101381.41;;;22.07;66.00
54248;BME280;40161;39.768;2.722;2022-09-23T04:30:40;101372.75;;;22.21;65.31
54248;BME280;40161;39.768;2.722;2022-09-23T04:33:07;101420.66;;;22.59;64.86
54248;BME280;40161;39.768;2.722;2022-09-23T04:35:32;101390.56;;;22.47;64.04
54248;BME280;40161;39.768;2.722;2022-09-23T04:37:58;101411.19;;;22.53;64.30
54248;BME280;40161;39.768;2.722;2022-09-23T04:40:23;101406.41;;;22.54;64.50
54248;BME280;40161;39.768;2.722;2022-09-23T04:42:49;101423.75;;;22.65;63.19
54248;BME280;40161;39.768;2.722;2022-09-23T04:45:14;101413.50;;;22.58;63.49
54248;BME280;40161;39.768;2.722;2022-09-23T04:47:40;101373.13;;;21.79;64.32
54248;BME280;40161;39.768;2.722;2022-09-23T04:50:06;101405.75;;;21.12;68.30
54248;BME280;40161;39.768;2.722;2022-09-23T04:52:32;101430.88;;;21.39;70.61
54248;BME280;40161;39.768;2.722;2022-09-23T04:54:57;101433.22;;;21.88;67.17
54248;BME280;40161;39.768;2.722;2022-09-23T04:57:23;101434.94;;;22.25;65.47
54248;BME280;40161;39.768;2.722;2022-09-23T04:59:49;101424.84;;;22.31;64.90
54248;BME280;40161;39.768;2.722;2022-09-23T05:02:15;101420.69;;;22.39;64.26
54248;BME280;40161;39.768;2.722;2022-09-23T05:04:40;101427.34;;;22.45;64.45
54248;BME280;40161;39.768;2.722;2022-09-23T05:07:06;101389.66;;;22.34;63.91
54248;BME280;40161;39.768;2.722;2022-09-23T05:09:32;101434.66;;;22.59;62.72
54248;BME280;40161;39.768;2.722;2022-09-23T05:11:58;101431.16;;;22.55;64.30
54248;BME280;40161;39.768;2.722;2022-09-23T05:14:23;101415.72;;;22.47;63.37
54248;BME280;40161;39.768;2.722;2022-09-23T05:16:49;101381.75;;;22.28;64.11
54248;BME280;40161;39.768;2.722;2022-09-23T05:19:14;101411.81;;;22.44;63.49
54248;BME280;40161;39.768;2.722;2022-09-23T05:21:40;101418.41;;;22.54;62.97
54248;BME280;40161;39.768;2.722;2022-09-23T05:24:05;101421.81;;;22.62;63.21
54248;BME280;40161;39.768;2.722;2022-09-23T05:26:31;101427.84;;;22.60;61.80
54248;BME280;40161;39.768;2.722;2022-09-23T05:28:58;101438.47;;;21.86;63.10
54248;BME280;40161;39.768;2.722;2022-09-23T05:31:26;101442.25;;;21.75;63.17
54248;BME280;40161;39.768;2.722;2022-09-23T05:33:55;101425.78;;;21.07;66.57
54248;BME280;40161;39.768;2.722;2022-09-23T05:36:22;101404.50;;;20.90;67.68
54248;BME280;40161;39.768;2.722;2022-09-23T05:38:48;101435.44;;;20.99;66.64
54248;BME280;40161;39.768;2.722;2022-09-23T05:41:16;101442.41;;;20.87;68.55
54248;BME280;40161;39.768;2.722;2022-09-23T05:43:42;101441.69;;;20.49;72.49
54248;BME280;40161;39.768;2.722;2022-09-23T05:46:12;101420.56;;;20.17;71.93
54248;BME280;40161;39.768;2.722;2022-09-23T05:48:39;101448.63;;;20.68;72.20
54248;BME280;40161;39.768;2.722;2022-09-23T05:51:07;101454.44;;;20.46;70.62
54248;BME280;40161;39.768;2.722;2022-09-23T05:53:33;101436.72;;;20.29;70.43
54248;BME280;40161;39.768;2.722;2022-09-23T05:55:58;101459.75;;;19.96;73.66
54248;BME280;40161;39.768;2.722;2022-09-23T05:58:24;101443.06;;;19.47;75.42
54248;BME280;40161;39.768;2.722;2022-09-23T06:00:50;101461.28;;;20.04;76.48
54248;BME280;40161;39.768;2.722;2022-09-23T06:03:18;101415.91;;;20.07;73.50
54248;BME280;40161;39.768;2.722;2022-09-23T06:05:44;101452.03;;;20.82;72.41
54248;BME280;40161;39.768;2.722;2022-09-23T06:08:10;101463.94;;;21.14;71.27
54248;BME280;40161;39.768;2.722;2022-09-23T06:10:41;101433.38;;;21.06;68.02
54248;BME280;40161;39.768;2.722;2022-09-23T06:13:08;101456.00;;;20.81;69.77
54248;BME280;40161;39.768;2.722;2022-09-23T06:15:34;101478.47;;;21.01;67.72
54248;BME280;40161;39.768;2.722;2022-09-23T06:18:00;101434.22;;;20.04;71.49
54248;BME280;40161;39.768;2.722;2022-09-23T06:20:26;101468.66;;;19.28;77.26
54248;BME280;40161;39.768;2.722;2022-09-23T06:22:52;101440.78;;;18.72;78.98
54248;BME280;40161;39.768;2.722;2022-09-23T06:25:19;101450.75;;;18.59;80.77
54248;BME280;40161;39.768;2.722;2022-09-23T06:27:56;101451.00;;;18.93;80.15
54248;BME280;40161;39.768;2.722;2022-09-23T06:30:22;101484.47;;;19.41;77.68
54248;BME280;40161;39.768;2.722;2022-09-23T06:32:54;101451.81;;;19.49;76.67
54248;BME280;40161;39.768;2.722;2022-09-23T06:35:24;101472.38;;;19.66;75.35
54248;BME280;40161;39.768;2.722;2022-09-23T06:37:51;101453.16;;;19.27;77.09
54248;BME280;40161;39.768;2.722;2022-09-23T06:40:17;101468.13;;;19.43;76.46
54248;BME280;40161;39.768;2.722;2022-09-23T06:42:43;101452.63;;;19.95;76.71
54248;BME280;40161;39.768;2.722;2022-09-23T06:45:10;101453.25;;;19.68;74.29
54248;BME280;40161;39.768;2.722;2022-09-23T06:47:43;101460.25;;;19.38;76.23
54248;BME280;40161;39.768;2.722;2022-09-23T06:50:12;101445.34;;;19.63;76.34
54248;BME280;40161;39.768;2.722;2022-09-23T06:52:37;101474.28;;;20.18;75.38
54248;BME280;40161;39.768;2.722;2022-09-23T06:55:03;101466.84;;;20.42;74.76
54248;BME280;40161;39.768;2.722;2022-09-23T06:57:32;101436.00;;;20.59;72.59
54248;BME280;40161;39.768;2.722;2022-09-23T06:59:58;101471.16;;;21.11;70.68
54248;BME280;40161;39.768;2.722;2022-09-23T07:02:24;101439.78;;;21.03;69.60
54248;BME280;40161;39.768;2.722;2022-09-23T07:04:51;101475.06;;;21.17;69.80
54248;BME280;40161;39.768;2.722;2022-09-23T07:07:16;101430.47;;;20.86;70.12
54248;BME280;40161;39.768;2.722;2022-09-23T07:09:43;101457.69;;;21.06;70.11
54248;BME280;40161;39.768;2.722;2022-09-23T07:12:09;101469.34;;;20.97;68.74
54248;BME280;40161;39.768;2.722;2022-09-23T07:14:34;101417.31;;;20.22;71.39
54248;BME280;40161;39.768;2.722;2022-09-23T07:17:00;101464.97;;;20.31;73.31
54248;BME280;40161;39.768;2.722;2022-09-23T07:19:26;101475.66;;;20.36;73.16
54248;BME280;40161;39.768;2.722;2022-09-23T07:21:52;101444.03;;;20.16;72.52
54248;BME280;40161;39.768;2.722;2022-09-23T07:24:18;101408.84;;;19.95;70.48
54248;BME280;40161;39.768;2.722;2022-09-23T07:26:43;101445.50;;;20.28;70.06
54248;BME280;40161;39.768;2.722;2022-09-23T07:29:12;101463.75;;;20.70;71.10
54248;BME280;40161;39.768;2.722;2022-09-23T07:31:38;101456.09;;;21.05;69.53
54248;BME280;40161;39.768;2.722;2022-09-23T07:34:04;101444.53;;;21.30;68.80
54248;BME280;40161;39.768;2.722;2022-09-23T07:36:30;101442.47;;;21.38;67.53
54248;BME280;40161;39.768;2.722;2022-09-23T07:38:57;101466.34;;;21.42;67.35
54248;BME280;40161;39.768;2.722;2022-09-23T07:41:26;101445.19;;;21.14;66.42
54248;BME280;40161;39.768;2.722;2022-09-23T07:43:55;101426.22;;;21.29;66.60
54248;BME280;40161;39.768;2.722;2022-09-23T07:46:25;101481.56;;;21.85;66.51
54248;BME280;40161;39.768;2.722;2022-09-23T07:48:52;101461.56;;;21.66;65.13
54248;BME280;40161;39.768;2.722;2022-09-23T07:51:25;101477.22;;;21.84;64.49
54248;BME280;40161;39.768;2.722;2022-09-23T07:53:52;101453.03;;;21.73;63.16
54248;BME280;40161;39.768;2.722;2022-09-23T07:56:20;101482.06;;;22.03;61.88
54248;BME280;40161;39.768;2.722;2022-09-23T07:58:47;101445.22;;;21.65;61.43
54248;BME280;40161;39.768;2.722;2022-09-23T08:01:28;101435.19;;;21.67;60.17
54248;BME280;40161;39.768;2.722;2022-09-23T08:04:02;101480.91;;;22.00;59.05
54248;BME280;40161;39.768;2.722;2022-09-23T08:06:28;101491.44;;;21.93;60.80
54248;BME280;40161;39.768;2.722;2022-09-23T08:08:56;101481.28;;;22.02;61.52
54248;BME280;40161;39.768;2.722;2022-09-23T08:11:22;101456.53;;;22.01;60.78
54248;BME280;40161;39.768;2.722;2022-09-23T08:13:49;101463.94;;;22.11;60.73
54248;BME280;40161;39.768;2.722;2022-09-23T08:16:14;101479.63;;;22.28;59.12
54248;BME280;40161;39.768;2.722;2022-09-23T08:18:43;101477.06;;;22.38;57.73
54248;BME280;40161;39.768;2.722;2022-09-23T08:21:09;101497.19;;;22.69;56.20
54248;BME280;40161;39.768;2.722;2022-09-23T08:23:35;101454.53;;;22.25;57.36
54248;BME280;40161;39.768;2.722;2022-09-23T08:26:04;101493.31;;;22.63;57.71
54248;BME280;40161;39.768;2.722;2022-09-23T08:28:31;101467.28;;;22.46;58.16
54248;BME280;40161;39.768;2.722;2022-09-23T08:30:58;101500.34;;;22.71;57.04
54248;BME280;40161;39.768;2.722;2022-09-23T08:33:24;101499.13;;;22.92;55.33
54248;BME280;40161;39.768;2.722;2022-09-23T08:35:50;101479.03;;;22.77;55.24
54248;BME280;40161;39.768;2.722;2022-09-23T08:38:16;101470.53;;;22.64;54.64
54248;BME280;40161;39.768;2.722;2022-09-23T08:40:44;101474.81;;;22.69;54.83
54248;BME280;40161;39.768;2.722;2022-09-23T08:43:32;101498.19;;;22.98;54.17
54248;BME280;40161;39.768;2.722;2022-09-23T08:46:03;101476.94;;;23.01;53.11
54248;BME280;40161;39.768;2.722;2022-09-23T08:48:31;101516.72;;;23.29;53.63
54248;BME280;40161;39.768;2.722;2022-09-23T08:51:04;101488.38;;;23.27;53.38
54248;BME280;40161;39.768;2.722;2022-09-23T08:53:35;101523.72;;;23.53;54.44
54248;BME280;40161;39.768;2.722;2022-09-23T08:56:22;101513.75;;;23.52;53.44
54248;BME280;40161;39.768;2.722;2022-09-23T09:04:25;101485.34;;;23.70;50.40
54248;BME280;40161;39.768;2.722;2022-09-23T09:11:53;101520.97;;;23.86;50.44
54248;BME280;40161;39.768;2.722;2022-09-23T09:14:35;101494.00;;;23.76;53.66
54248;BME280;40161;39.768;2.722;2022-09-23T09:17:09;101509.69;;;23.89;53.76
54248;BME280;40161;39.768;2.722;2022-09-23T09:25:04;101520.88;;;24.06;52.67
54248;BME280;40161;39.768;2.722;2022-09-23T09:27:38;101500.78;;;24.07;49.75
54248;BME280;40161;39.768;2.722;2022-09-23T09:30:09;101482.25;;;23.97;49.60
54248;BME280;40161;39.768;2.722;2022-09-23T09:32:51;101524.88;;;24.21;50.83
54248;BME280;40161;39.768;2.722;2022-09-23T09:35:41;101508.97;;;24.47;47.28
54248;BME280;40161;39.768;2.722;2022-09-23T09:38:11;101504.66;;;24.43;49.12
54248;BME280;40161;39.768;2.722;2022-09-23T09:40:45;101473.59;;;24.21;50.00
54248;BME280;40161;39.768;2.722;2022-09-23T09:43:18;101510.34;;;24.39;51.29
54248;BME280;40161;39.768;2.722;2022-09-23T09:46:02;101467.78;;;24.28;48.80
54248;BME280;40161;39.768;2.722;2022-09-23T09:48:56;101482.06;;;24.33;50.63
54248;BME280;40161;39.768;2.722;2022-09-23T09:51:25;101502.56;;;24.47;51.59
54248;BME280;40161;39.768;2.722;2022-09-23T09:53:53;101497.94;;;24.40;51.67
54248;BME280;40161;39.768;2.722;2022-09-23T09:56:30;101471.47;;;24.25;51.70
54248;BME280;40161;39.768;2.722;2022-09-23T09:59:00;101448.66;;;24.10;51.57
54248;BME280;40161;39.768;2.722;2022-09-23T10:01:28;101489.34;;;24.31;52.16
54248;BME280;40161;39.768;2.722;2022-09-23T10:03:57;101503.00;;;24.45;51.00
54248;BME280;40161;39.768;2.722;2022-09-23T10:06:26;101499.50;;;24.41;50.27
54248;BME280;40161;39.768;2.722;2022-09-23T10:09:03;101506.84;;;24.51;49.98
54248;BME280;40161;39.768;2.722;2022-09-23T10:11:31;101496.44;;;24.77;49.59
54248;BME280;40161;39.768;2.722;2022-09-23T10:16:37;101482.25;;;24.84;50.32
54248;BME280;40161;39.768;2.722;2022-09-23T10:19:13;101507.78;;;25.28;49.27
54248;BME280;40161;39.768;2.722;2022-09-23T10:21:40;101501.25;;;25.44;49.01
54248;BME280;40161;39.768;2.722;2022-09-23T10:24:07;101480.47;;;25.29;50.68
54248;BME280;40161;39.768;2.722;2022-09-23T10:26:50;101461.25;;;25.15;49.64
54248;BME280;40161;39.768;2.722;2022-09-23T10:29:38;101497.00;;;25.40;51.46
54248;BME280;40161;39.768;2.722;2022-09-23T10:35:21;101490.47;;;25.43;50.17
54248;BME280;40161;39.768;2.722;2022-09-23T10:37:55;101480.03;;;25.30;50.00
54248;BME280;40161;39.768;2.722;2022-09-23T10:40:37;101488.66;;;25.49;49.99
54248;BME280;40161;39.768;2.722;2022-09-23T10:43:22;101491.16;;;25.47;50.79
54248;BME280;40161;39.768;2.722;2022-09-23T10:49:48;101500.53;;;25.78;49.96
54248;BME280;40161;39.768;2.722;2022-09-23T11:00:18;101491.03;;;25.38;52.74
54248;BME280;40161;39.768;2.722;2022-09-23T11:13:48;101493.47;;;25.10;53.91
54248;BME280;40161;39.768;2.722;2022-09-23T11:19:32;101484.41;;;25.31;53.03
54248;BME280;40161;39.768;2.722;2022-09-23T11:25:41;101486.66;;;25.37;53.41
54248;BME280;40161;39.768;2.722;2022-09-23T11:36:31;101479.69;;;25.41;53.09
54248;BME280;40161;39.768;2.722;2022-09-23T11:39:00;101453.84;;;25.21;52.43
54248;BME280;40161;39.768;2.722;2022-09-23T11:41:32;101449.03;;;25.21;52.29
54248;BME280;40161;39.768;2.722;2022-09-23T11:44:10;101460.38;;;25.43;52.64
54248;BME280;40161;39.768;2.722;2022-09-23T11:46:44;101470.97;;;25.74;52.52
54248;BME280;40161;39.768;2.722;2022-09-23T11:49:37;101470.28;;;25.70;51.92
54248;BME280;40161;39.768;2.722;2022-09-23T11:55:01;101461.97;;;25.79;51.50
54248;BME280;40161;39.768;2.722;2022-09-23T11:57:35;101443.25;;;25.50;51.83
54248;BME280;40161;39.768;2.722;2022-09-23T12:00:06;101460.97;;;25.60;51.73
54248;BME280;40161;39.768;2.722;2022-09-23T12:03:04;101464.38;;;25.55;52.49
54248;BME280;40161;39.768;2.722;2022-09-23T12:05:40;101458.34;;;25.31;53.13
54248;BME280;40161;39.768;2.722;2022-09-23T12:08:20;101443.28;;;25.25;51.81
54248;BME280;40161;39.768;2.722;2022-09-23T12:16:49;101422.06;;;25.71;51.72
54248;BME280;40161;39.768;2.722;2022-09-23T12:19:42;101419.69;;;25.83;50.88
54248;BME280;40161;39.768;2.722;2022-09-23T12:27:40;101400.81;;;25.83;51.09
54248;BME280;40161;39.768;2.722;2022-09-23T12:30:22;101403.44;;;25.99;51.38
54248;BME280;40161;39.768;2.722;2022-09-23T12:32:49;101383.50;;;26.07;50.30
54248;BME280;40161;39.768;2.722;2022-09-23T12:35:24;101394.94;;;26.12;50.97
54248;BME280;40161;39.768;2.722;2022-09-23T12:37:58;101368.06;;;25.76;51.57
54248;BME280;40161;39.768;2.722;2022-09-23T12:40:29;101389.13;;;25.72;51.72
54248;BME280;40161;39.768;2.722;2022-09-23T12:42:56;101385.91;;;25.61;52.66
54248;BME280;40161;39.768;2.722;2022-09-23T12:50:56;101328.16;;;24.99;51.81
54248;BME280;40161;39.768;2.722;2022-09-23T12:55:58;101357.06;;;25.47;52.07
54248;BME280;40161;39.768;2.722;2022-09-23T13:01:40;101383.63;;;25.21;53.22
54248;BME280;40161;39.768;2.722;2022-09-23T13:04:26;101372.31;;;25.12;53.47
54248;BME280;40161;39.768;2.722;2022-09-23T13:07:15;101391.72;;;25.31;53.53
54248;BME280;40161;39.768;2.722;2022-09-23T13:09:45;101384.97;;;25.29;54.21
54248;BME280;40161;39.768;2.722;2022-09-23T13:12:23;101376.91;;;25.18;54.27
54248;BME280;40161;39.768;2.722;2022-09-23T13:14:52;101385.66;;;25.20;54.41
54248;BME280;40161;39.768;2.722;2022-09-23T13:17:35;101386.34;;;25.12;54.28
54248;BME280;40161;39.768;2.722;2022-09-23T13:22:58;101373.16;;;25.08;53.58
54248;BME280;40161;39.768;2.722;2022-09-23T13:25:28;101366.34;;;25.09;53.11
54248;BME280;40161;39.768;2.722;2022-09-23T13:28:02;101342.22;;;24.86;54.83
54248;BME280;40161;39.768;2.722;2022-09-23T13:30:34;101378.13;;;25.30;53.88
54248;BME280;40161;39.768;2.722;2022-09-23T13:33:21;101375.06;;;25.37;53.70
54248;BME280;40161;39.768;2.722;2022-09-23T13:35:49;101342.88;;;24.91;53.97
54248;BME280;40161;39.768;2.722;2022-09-23T13:38:23;101368.81;;;25.07;54.57
54248;BME280;40161;39.768;2.722;2022-09-23T13:40:55;101365.69;;;24.93;55.27
54248;BME280;40161;39.768;2.722;2022-09-23T13:45:53;101337.50;;;24.96;53.66
54248;BME280;40161;39.768;2.722;2022-09-23T13:48:22;101371.09;;;25.13;53.78
54248;BME280;40161;39.768;2.722;2022-09-23T13:50:50;101333.59;;;24.68;55.01
54248;BME280;40161;39.768;2.722;2022-09-23T13:53:28;101339.53;;;24.70;56.06
54248;BME280;40161;39.768;2.722;2022-09-23T13:56:05;101364.44;;;24.94;54.71
54248;BME280;40161;39.768;2.722;2022-09-23T13:58:33;101358.72;;;24.84;54.40
54248;BME280;40161;39.768;2.722;2022-09-23T14:00:59;101369.50;;;24.99;54.72
54248;BME280;40161;39.768;2.722;2022-09-23T14:03:30;101330.31;;;24.95;54.06
54248;BME280;40161;39.768;2.722;2022-09-23T14:05:59;101350.16;;;25.01;54.82
54248;BME280;40161;39.768;2.722;2022-09-23T14:08:27;101356.78;;;25.07;55.36
54248;BME280;40161;39.768;2.722;2022-09-23T14:10:55;101333.25;;;24.92;55.34
54248;BME280;40161;39.768;2.722;2022-09-23T14:13:23;101354.66;;;25.11;55.59
54248;BME280;40161;39.768;2.722;2022-09-23T14:15:49;101326.03;;;24.91;56.25
54248;BME280;40161;39.768;2.722;2022-09-23T14:18:24;101326.50;;;24.89;55.72
54248;BME280;40161;39.768;2.722;2022-09-23T14:20:51;101336.13;;;25.01;56.01
54248;BME280;40161;39.768;2.722;2022-09-23T14:23:17;101343.28;;;25.40;55.01
54248;BME280;40161;39.768;2.722;2022-09-23T14:25:43;101326.56;;;25.24;55.22
54248;BME280;40161;39.768;2.722;2022-09-23T14:28:18;101323.56;;;25.05;56.55
54248;BME280;40161;39.768;2.722;2022-09-23T14:30:45;101291.94;;;24.79;57.19
54248;BME280;40161;39.768;2.722;2022-09-23T14:33:17;101310.19;;;24.97;55.94
54248;BME280;40161;39.768;2.722;2022-09-23T14:35:48;101330.28;;;25.08;56.91
54248;BME280;40161;39.768;2.722;2022-09-23T14:38:26;101322.31;;;25.19;56.43
54248;BME280;40161;39.768;2.722;2022-09-23T14:41:25;101297.03;;;25.06;56.10
54248;BME280;40161;39.768;2.722;2022-09-23T14:43:56;101296.59;;;25.21;55.85
54248;BME280;40161;39.768;2.722;2022-09-23T14:46:27;101311.63;;;25.27;56.18
54248;BME280;40161;39.768;2.722;2022-09-23T14:48:57;101312.13;;;25.47;55.71
54248;BME280;40161;39.768;2.722;2022-09-23T14:51:51;101309.56;;;25.40;56.97
54248;BME280;40161;39.768;2.722;2022-09-23T14:54:42;101311.22;;;25.50;56.44
54248;BME280;40161;39.768;2.722;2022-09-23T14:57:28;101283.06;;;25.28;56.30
54248;BME280;40161;39.768;2.722;2022-09-23T15:00:17;101306.25;;;25.54;56.00
54248;BME280;40161;39.768;2.722;2022-09-23T15:02:56;101294.53;;;25.56;55.93
54248;BME280;40161;39.768;2.722;2022-09-23T15:05:39;101293.56;;;25.72;55.84
54248;BME280;40161;39.768;2.722;2022-09-23T15:08:09;101265.34;;;25.19;56.71
54248;BME280;40161;39.768;2.722;2022-09-23T15:10:39;101280.50;;;25.21;56.79
54248;BME280;40161;39.768;2.722;2022-09-23T15:13:08;101300.41;;;25.49;56.22
54248;BME280;40161;39.768;2.722;2022-09-23T15:15:37;101284.22;;;25.18;56.65
54248;BME280;40161;39.768;2.722;2022-09-23T15:18:13;101259.38;;;25.29;56.07
54248;BME280;40161;39.768;2.722;2022-09-23T15:20:39;101266.56;;;25.30;55.93
54248;BME280;40161;39.768;2.722;2022-09-23T15:23:32;101264.69;;;25.15;56.20
54248;BME280;40161;39.768;2.722;2022-09-23T15:26:03;101247.16;;;25.10;56.69
54248;BME280;40161;39.768;2.722;2022-09-23T15:28:30;101274.91;;;25.08;56.78
54248;BME280;40161;39.768;2.722;2022-09-23T15:30:56;101280.31;;;25.16;56.52